createdAt,value
2023-05-10T00:01:06.979Z,12.98
2023-05-10T00:03:33.478Z,13.08
2023-05-10T00:05:59.964Z,12.96
2023-05-10T00:08:26.443Z,12.96
2023-05-10T00:10:52.809Z,12.92
2023-05-10T00:13:19.480Z,12.96
2023-05-10T00:15:45.953Z,12.99
2023-05-10T00:18:12.385Z,12.97
2023-05-10T00:20:39.236Z,12.79
2023-05-10T00:23:05.632Z,12.88
2023-05-10T00:25:32.707Z,12.92
2023-05-10T00:28:01.417Z,12.97
2023-05-10T00:30:28.020Z,12.95
2023-05-10T00:32:54.526Z,13.00
2023-05-10T00:35:21.090Z,12.96
2023-05-10T00:37:47.580Z,12.89
2023-05-10T00:40:14.104Z,12.82
2023-05-10T00:42:40.670Z,12.81
2023-05-10T00:45:07.059Z,12.81
2023-05-10T00:47:33.564Z,12.78
2023-05-10T00:50:02.239Z,12.75
2023-05-10T00:52:28.797Z,12.68
2023-05-10T00:54:55.406Z,12.65
2023-05-10T00:57:21.995Z,12.66
2023-05-10T00:59:48.508Z,12.51
2023-05-10T01:02:14.903Z,12.47
2023-05-10T01:04:41.358Z,12.54
2023-05-10T01:07:08.080Z,12.42
2023-05-10T01:09:34.465Z,12.32
2023-05-10T01:12:01.013Z,12.27
2023-05-10T01:14:28.331Z,12.38
2023-05-10T01:16:54.759Z,12.43
2023-05-10T01:19:21.291Z,12.28
2023-05-10T01:21:47.980Z,12.28
2023-05-10T01:24:14.303Z,12.31
2023-05-10T01:26:42.778Z,12.48
2023-05-10T01:29:09.165Z,12.37
2023-05-10T01:31:35.609Z,12.36
2023-05-10T01:34:02.162Z,12.28
2023-05-10T01:36:28.650Z,12.27
2023-05-10T01:38:55.379Z,12.30
2023-05-10T01:41:22.013Z,12.21
2023-05-10T01:43:48.619Z,12.16
2023-05-10T01:46:15.745Z,12.19
2023-05-10T01:48:45.651Z,12.15
2023-05-10T01:51:12.201Z,12.22
2023-05-10T01:53:38.623Z,12.13
2023-05-10T01:56:05.023Z,12.14
2023-05-10T01:58:31.501Z,12.13
2023-05-10T02:01:00.227Z,12.13
2023-05-10T02:03:26.694Z,12.11
2023-05-10T02:05:53.123Z,12.12
2023-05-10T02:08:19.620Z,12.13
2023-05-10T02:10:46.038Z,12.03
2023-05-10T02:13:12.508Z,11.99
2023-05-10T02:15:38.930Z,12.04
2023-05-10T02:18:05.403Z,12.00
2023-05-10T02:20:31.914Z,11.96
2023-05-10T02:22:58.382Z,12.04
2023-05-10T02:25:24.848Z,12.05
2023-05-10T02:27:51.360Z,12.05
2023-05-10T02:30:18.008Z,11.97
2023-05-10T02:32:45.097Z,12.03
2023-05-10T02:35:11.573Z,11.94
2023-05-10T02:37:38.228Z,11.85
2023-05-10T02:40:04.877Z,11.89
2023-05-10T02:42:31.312Z,11.84
2023-05-10T02:44:58.099Z,11.85
2023-05-10T02:47:24.535Z,11.84
2023-05-10T02:49:51.074Z,11.73
2023-05-10T02:52:17.457Z,11.70
2023-05-10T02:54:43.882Z,11.62
2023-05-10T02:57:10.577Z,11.70
2023-05-10T02:59:37.473Z,11.67
2023-05-10T03:02:04.857Z,11.67
2023-05-10T03:04:31.468Z,11.61
2023-05-10T03:06:58.155Z,11.66
2023-05-10T03:09:24.737Z,11.63
2023-05-10T03:11:51.266Z,11.63
2023-05-10T03:14:17.712Z,11.65
2023-05-10T03:16:45.132Z,11.61
2023-05-10T03:19:11.860Z,11.61
2023-05-10T03:21:38.442Z,11.57
2023-05-10T03:24:04.872Z,11.55
2023-05-10T03:26:31.279Z,11.56
2023-05-10T03:28:57.638Z,11.53
2023-05-10T03:31:24.066Z,11.44
2023-05-10T03:34:02.391Z,11.45
2023-05-10T03:36:28.794Z,11.49
2023-05-10T03:38:55.192Z,11.48
2023-05-10T03:41:21.623Z,11.56
2023-05-10T03:43:48.114Z,11.54
2023-05-10T03:46:14.511Z,11.56
2023-05-10T03:48:43.387Z,11.58
2023-05-10T03:51:09.780Z,11.57
2023-05-10T03:53:36.196Z,11.56
2023-05-10T03:56:02.546Z,11.69
2023-05-10T03:58:28.973Z,11.79
2023-05-10T04:00:55.342Z,11.89
2023-05-10T04:03:21.915Z,11.87
2023-05-10T04:05:49.476Z,11.71
2023-05-10T04:08:16.026Z,11.64
2023-05-10T04:10:42.446Z,11.67
2023-05-10T04:13:09.095Z,11.62
2023-05-10T04:15:35.654Z,11.56
2023-05-10T04:18:02.093Z,11.61
2023-05-10T04:20:28.925Z,11.39
2023-05-10T04:22:55.270Z,11.26
2023-05-10T04:25:21.811Z,11.32
2023-05-10T04:27:48.447Z,11.26
2023-05-10T04:30:16.000Z,11.38
2023-05-10T04:32:42.583Z,11.38
2023-05-10T04:35:09.196Z,11.39
2023-05-10T04:37:35.592Z,11.41
2023-05-10T04:40:02.043Z,11.43
2023-05-10T04:42:28.434Z,11.46
2023-05-10T04:44:54.912Z,11.47
2023-05-10T04:47:21.478Z,11.54
2023-05-10T04:49:47.911Z,11.45
2023-05-10T04:52:14.341Z,11.49
2023-05-10T04:54:41.205Z,11.43
2023-05-10T04:57:07.579Z,11.50
2023-05-10T04:59:35.456Z,11.64
2023-05-10T05:02:01.937Z,11.71
2023-05-10T05:04:28.548Z,11.56
2023-05-10T05:06:55.256Z,11.55
2023-05-10T05:09:22.846Z,11.49
2023-05-10T05:11:49.665Z,11.47
2023-05-10T05:14:16.119Z,11.63
2023-05-10T05:16:43.021Z,11.62
2023-05-10T05:19:09.441Z,11.47
2023-05-10T05:21:35.826Z,11.50
2023-05-10T05:24:02.276Z,11.60
2023-05-10T05:26:28.672Z,11.56
2023-05-10T05:28:55.430Z,11.80
2023-05-10T05:31:22.011Z,11.87
2023-05-10T05:33:48.471Z,11.82
2023-05-10T05:36:15.284Z,11.95
2023-05-10T05:38:41.762Z,11.91
2023-05-10T05:41:08.152Z,11.83
2023-05-10T05:43:37.470Z,11.93
2023-05-10T05:46:04.897Z,11.90
2023-05-10T05:48:31.472Z,12.07
2023-05-10T05:50:57.869Z,11.93
2023-05-10T05:53:24.615Z,11.88
2023-05-10T05:55:51.046Z,11.91
2023-05-10T05:58:18.316Z,12.16
2023-05-10T06:00:45.896Z,12.02
2023-05-10T06:03:14.922Z,12.15
2023-05-10T06:05:41.423Z,12.16
2023-05-10T06:08:07.964Z,12.08
2023-05-10T06:10:34.799Z,11.99
2023-05-10T06:13:01.489Z,12.26
2023-05-10T06:15:30.886Z,12.34
2023-05-10T06:18:00.189Z,12.43
2023-05-10T06:20:27.634Z,12.50
2023-05-10T06:22:54.067Z,12.37
2023-05-10T06:25:20.515Z,12.65
2023-05-10T06:27:50.975Z,12.74
2023-05-10T06:30:19.392Z,12.86
2023-05-10T06:32:45.831Z,12.93
2023-05-10T06:35:12.255Z,12.90
2023-05-10T06:37:38.792Z,12.87
2023-05-10T06:40:07.234Z,12.95
2023-05-10T06:42:33.726Z,12.99
2023-05-10T06:45:00.167Z,12.89
2023-05-10T06:47:26.703Z,13.15
2023-05-10T06:49:53.181Z,13.09
2023-05-10T06:52:19.605Z,13.22
2023-05-10T06:54:45.976Z,13.18
2023-05-10T06:57:23.402Z,13.13
2023-05-10T06:59:57.581Z,13.25
2023-05-10T07:02:24.070Z,13.33
2023-05-10T07:04:50.797Z,13.46
2023-05-10T07:07:17.303Z,13.45
2023-05-10T07:09:43.727Z,13.42
2023-05-10T07:12:12.131Z,13.44
2023-05-10T07:14:39.935Z,13.53
2023-05-10T07:17:06.284Z,13.48
2023-05-10T07:19:32.797Z,13.69
2023-05-10T07:21:59.380Z,13.77
2023-05-10T07:24:25.811Z,13.78
2023-05-10T07:26:52.249Z,13.80
2023-05-10T07:29:18.731Z,13.86
2023-05-10T07:31:45.144Z,13.90
2023-05-10T07:34:11.722Z,13.85
2023-05-10T07:36:38.146Z,13.94
2023-05-10T07:39:05.118Z,13.87
2023-05-10T07:41:31.516Z,14.01
2023-05-10T07:43:57.879Z,14.01
2023-05-10T07:46:24.433Z,14.01
2023-05-10T07:48:51.010Z,13.94
2023-05-10T07:51:17.876Z,13.99
2023-05-10T07:53:44.211Z,14.15
2023-05-10T07:56:10.946Z,14.25
2023-05-10T07:58:37.309Z,14.23
2023-05-10T08:01:03.733Z,14.31
2023-05-10T08:03:30.178Z,14.28
2023-05-10T08:05:56.599Z,14.10
2023-05-10T08:08:23.182Z,14.11
2023-05-10T08:10:49.584Z,14.30
2023-05-10T08:13:16.175Z,14.46
2023-05-10T08:15:43.066Z,14.39
2023-05-10T08:18:09.672Z,14.46
2023-05-10T08:20:37.520Z,14.56
2023-05-10T08:23:03.917Z,14.52
2023-05-10T08:25:30.449Z,14.57
2023-05-10T08:27:56.988Z,14.63
2023-05-10T08:30:23.392Z,14.67
2023-05-10T08:32:50.045Z,14.79
2023-05-10T08:35:16.709Z,14.82
2023-05-10T08:37:45.902Z,14.73
2023-05-10T08:40:12.282Z,14.92
2023-05-10T08:42:38.675Z,15.12
2023-05-10T08:45:05.077Z,15.22
2023-05-10T08:47:31.702Z,15.17
2023-05-10T08:49:58.104Z,15.35
2023-05-10T08:52:24.528Z,15.41
2023-05-10T08:54:51.484Z,15.35
2023-05-10T08:57:18.868Z,15.46
2023-05-10T08:59:45.296Z,15.55
2023-05-10T09:02:11.672Z,15.63
2023-05-10T09:04:38.174Z,15.41
2023-05-10T09:07:04.645Z,15.52
2023-05-10T09:09:31.094Z,15.66
2023-05-10T09:11:57.517Z,15.64
2023-05-10T09:14:26.233Z,15.67
2023-05-10T09:16:53.244Z,15.75
2023-05-10T09:19:20.051Z,15.73
2023-05-10T09:21:46.466Z,15.72
2023-05-10T09:24:12.848Z,15.65
2023-05-10T09:26:39.260Z,15.79
2023-05-10T09:29:05.637Z,15.65
2023-05-10T09:31:32.108Z,15.77
2023-05-10T09:33:58.498Z,15.70
2023-05-10T09:36:24.951Z,15.82
2023-05-10T09:38:51.339Z,15.82
2023-05-10T09:41:18.037Z,15.80
2023-05-10T09:43:44.463Z,15.76
2023-05-10T09:46:10.871Z,16.00
2023-05-10T09:48:37.292Z,16.12
2023-05-10T09:51:04.040Z,16.21
2023-05-10T09:53:30.764Z,16.32
2023-05-10T09:55:57.540Z,16.42
2023-05-10T09:58:24.317Z,16.43
2023-05-10T10:00:50.781Z,16.32
2023-05-10T10:03:17.579Z,16.31
2023-05-10T10:05:44.132Z,16.23
2023-05-10T10:08:10.644Z,16.26
2023-05-10T10:10:36.991Z,16.23
2023-05-10T10:13:03.388Z,16.22
2023-05-10T10:15:30.125Z,16.38
2023-05-10T10:17:56.556Z,16.37
2023-05-10T10:20:23.275Z,16.43
2023-05-10T10:22:49.674Z,16.43
2023-05-10T10:25:16.451Z,16.23
2023-05-10T10:27:43.196Z,16.17
2023-05-10T10:30:09.671Z,16.07
2023-05-10T10:32:36.120Z,16.35
2023-05-10T10:35:03.640Z,16.35
2023-05-10T10:37:29.959Z,16.40
2023-05-10T10:39:57.424Z,16.50
2023-05-10T10:42:23.887Z,16.61
2023-05-10T10:44:50.314Z,16.58
2023-05-10T10:47:17.159Z,16.67
2023-05-10T10:49:44.069Z,16.66
2023-05-10T10:52:10.738Z,16.67
2023-05-10T10:54:37.476Z,16.52
2023-05-10T10:57:03.868Z,16.65
2023-05-10T10:59:30.228Z,16.83
2023-05-10T11:01:57.206Z,16.87
2023-05-10T11:04:23.646Z,17.03
2023-05-10T11:06:50.394Z,16.96
2023-05-10T11:09:16.835Z,16.93
2023-05-10T11:11:43.251Z,17.14
2023-05-10T11:14:09.947Z,17.06
2023-05-10T11:16:36.385Z,17.04
2023-05-10T11:19:02.897Z,17.13
2023-05-10T11:21:29.360Z,17.27
2023-05-10T11:23:55.748Z,17.14
2023-05-10T11:26:22.159Z,17.15
2023-05-10T11:28:55.910Z,17.07
2023-05-10T11:31:22.751Z,17.12
2023-05-10T11:33:49.200Z,17.06
2023-05-10T11:36:15.577Z,17.03
2023-05-10T11:38:41.975Z,17.05
2023-05-10T11:41:08.356Z,17.14
2023-05-10T11:43:34.710Z,17.11
2023-05-10T11:46:01.094Z,16.82
2023-05-10T11:48:27.578Z,17.09
2023-05-10T11:50:53.991Z,17.17
2023-05-10T11:53:20.756Z,17.17
2023-05-10T11:55:47.059Z,17.25
2023-05-10T11:58:13.466Z,17.29
2023-05-10T12:00:39.952Z,17.51
2023-05-10T12:03:06.493Z,17.51
2023-05-10T12:05:33.113Z,17.66
2023-05-10T12:07:59.567Z,17.66
2023-05-10T12:10:26.197Z,17.65
2023-05-10T12:12:52.898Z,17.69
2023-05-10T12:15:19.289Z,17.70
2023-05-10T12:17:45.778Z,17.86
2023-05-10T12:20:12.241Z,17.98
2023-05-10T12:22:38.679Z,18.16
2023-05-10T12:25:05.053Z,18.22
2023-05-10T12:27:31.549Z,18.01
2023-05-10T12:29:58.083Z,18.00
2023-05-10T12:32:24.650Z,18.02
2023-05-10T12:34:51.099Z,18.22
2023-05-10T12:37:17.876Z,18.20
2023-05-10T12:39:44.377Z,18.16
2023-05-10T12:42:10.784Z,18.14
2023-05-10T12:44:37.136Z,18.24
2023-05-10T12:47:03.527Z,18.25
2023-05-10T12:49:29.927Z,18.33
2023-05-10T12:51:56.283Z,18.46
2023-05-10T12:54:22.825Z,18.38
2023-05-10T12:56:49.242Z,18.58
2023-05-10T12:59:15.655Z,18.62
2023-05-10T13:01:42.386Z,18.56
2023-05-10T13:04:08.963Z,18.65
2023-05-10T13:06:35.358Z,18.85
2023-05-10T13:09:01.784Z,18.82
2023-05-10T13:11:28.231Z,18.78
2023-05-10T13:13:54.847Z,18.82
2023-05-10T13:16:21.338Z,18.91
2023-05-10T13:18:47.758Z,19.02
2023-05-10T13:21:14.147Z,18.98
2023-05-10T13:23:40.546Z,18.87
2023-05-10T13:26:06.885Z,18.88
2023-05-10T13:28:33.300Z,18.90
2023-05-10T13:30:59.747Z,18.95
2023-05-10T13:33:26.154Z,18.88
2023-05-10T13:35:54.411Z,18.83
2023-05-10T13:38:22.526Z,18.94
2023-05-10T13:40:49.060Z,18.98
2023-05-10T13:43:15.416Z,18.90
2023-05-10T13:45:41.818Z,18.96
2023-05-10T13:48:08.289Z,18.93
2023-05-10T13:50:34.753Z,19.01
2023-05-10T13:53:02.352Z,18.85
2023-05-10T13:55:28.737Z,18.87
2023-05-10T13:57:55.616Z,18.96
2023-05-10T14:00:22.326Z,19.01
2023-05-10T14:02:48.786Z,18.98
2023-05-10T14:05:16.988Z,19.07
2023-05-10T14:07:44.687Z,19.11
2023-05-10T14:10:11.092Z,19.07
2023-05-10T14:12:44.841Z,19.23
2023-05-10T14:15:11.198Z,19.27
2023-05-10T14:17:39.064Z,19.19
2023-05-10T14:20:05.559Z,19.16
2023-05-10T14:22:32.315Z,19.19
2023-05-10T14:24:58.797Z,19.21
2023-05-10T14:27:25.162Z,19.41
2023-05-10T14:29:51.692Z,19.49
2023-05-10T14:32:18.359Z,19.41
2023-05-10T14:34:44.929Z,19.35
2023-05-10T14:37:11.299Z,19.25
2023-05-10T14:39:37.918Z,19.40
2023-05-10T14:42:04.319Z,19.47
2023-05-10T14:44:30.794Z,19.57
2023-05-10T14:46:57.481Z,19.51
2023-05-10T14:49:23.904Z,19.52
2023-05-10T14:51:50.700Z,19.56
2023-05-10T14:54:17.060Z,19.65
2023-05-10T14:56:44.504Z,19.81
2023-05-10T14:59:10.929Z,19.95
2023-05-10T15:01:38.186Z,20.04
2023-05-10T15:04:05.019Z,19.98
2023-05-10T15:06:31.962Z,20.11
2023-05-10T15:08:58.350Z,20.23
2023-05-10T15:11:24.910Z,20.29
2023-05-10T15:13:52.770Z,20.30
2023-05-10T15:16:19.358Z,20.38
2023-05-10T15:18:45.810Z,20.50
2023-05-10T15:21:12.348Z,20.52
2023-05-10T15:23:38.741Z,20.63
2023-05-10T15:26:05.534Z,20.69
2023-05-10T15:28:33.060Z,20.49
2023-05-10T15:31:00.940Z,20.58
2023-05-10T15:33:27.393Z,20.69
2023-05-10T15:35:53.828Z,20.65
2023-05-10T15:38:20.288Z,20.41
2023-05-10T15:40:47.073Z,20.31
2023-05-10T15:43:13.587Z,20.30
2023-05-10T15:45:40.123Z,20.12
2023-05-10T15:48:09.253Z,20.07
2023-05-10T15:50:35.931Z,19.94
2023-05-10T15:53:02.423Z,19.92
2023-05-10T15:55:29.020Z,19.96
2023-05-10T15:57:55.660Z,19.94
2023-05-10T16:00:22.101Z,19.79
2023-05-10T16:02:48.570Z,19.66
2023-05-10T16:05:15.734Z,19.60
2023-05-10T16:07:42.344Z,19.58
2023-05-10T16:10:08.862Z,19.51
2023-05-10T16:12:36.563Z,19.60
2023-05-10T16:15:03.610Z,19.61
2023-05-10T16:17:31.325Z,19.71
2023-05-10T16:19:58.754Z,19.55
2023-05-10T16:22:25.677Z,19.60
2023-05-10T16:24:52.877Z,19.77
2023-05-10T16:27:20.002Z,19.83
2023-05-10T16:29:46.944Z,19.77
2023-05-10T16:32:15.385Z,19.64
2023-05-10T16:34:42.337Z,19.66
2023-05-10T16:37:09.816Z,19.61
2023-05-10T16:39:36.817Z,19.64
2023-05-10T16:42:05.988Z,19.74
2023-05-10T16:44:33.031Z,19.87
2023-05-10T16:47:00.159Z,19.84
2023-05-10T16:49:28.207Z,19.90
2023-05-10T16:51:55.316Z,19.77
2023-05-10T16:54:22.625Z,19.77
2023-05-10T16:56:52.049Z,19.69
2023-05-10T16:59:20.058Z,19.49
2023-05-10T17:01:47.338Z,19.33
2023-05-10T17:04:14.479Z,19.33
2023-05-10T17:06:41.780Z,19.16
2023-05-10T17:09:08.969Z,19.21
2023-05-10T17:11:37.308Z,19.19
2023-05-10T17:14:04.869Z,19.18
2023-05-10T17:16:32.028Z,18.97
2023-05-10T17:18:59.391Z,18.97
2023-05-10T17:21:26.616Z,18.76
2023-05-10T17:23:53.714Z,18.84
2023-05-10T17:26:21.360Z,18.73
2023-05-10T17:28:48.459Z,18.69
2023-05-10T17:31:15.616Z,18.66
2023-05-10T17:33:43.088Z,18.77
2023-05-10T17:36:13.239Z,18.68
2023-05-10T17:38:40.576Z,18.74
2023-05-10T17:41:10.373Z,18.69
2023-05-10T17:43:38.041Z,18.69
2023-05-10T17:46:05.268Z,18.59
2023-05-10T17:48:32.518Z,18.65
2023-05-10T17:50:59.740Z,18.65
2023-05-10T17:53:27.575Z,18.63
2023-05-10T17:55:54.900Z,18.47
2023-05-10T17:58:23.462Z,18.54
2023-05-10T18:00:51.291Z,18.57
2023-05-10T18:03:18.517Z,18.58
2023-05-10T18:05:46.311Z,18.56
2023-05-10T18:08:13.615Z,18.59
2023-05-10T18:10:41.456Z,18.55
2023-05-10T18:13:09.088Z,18.51
2023-05-10T18:15:39.676Z,18.46
2023-05-10T18:18:07.955Z,18.46
2023-05-10T18:20:35.276Z,18.41
2023-05-10T18:23:02.493Z,18.30
2023-05-10T18:25:31.877Z,18.33
2023-05-10T18:28:00.320Z,18.34
2023-05-10T18:30:27.915Z,18.26
2023-05-10T18:32:55.731Z,18.17
2023-05-10T18:35:25.058Z,18.17
2023-05-10T18:37:54.624Z,18.17
2023-05-10T18:40:22.045Z,18.27
2023-05-10T18:42:49.339Z,18.07
2023-05-10T18:45:16.848Z,18.12
2023-05-10T18:47:44.443Z,18.14
2023-05-10T18:50:13.821Z,18.14
2023-05-10T18:52:41.111Z,18.16
2023-05-10T18:55:08.423Z,18.18
2023-05-10T18:57:35.677Z,18.06
2023-05-10T19:00:02.900Z,18.13
2023-05-10T19:02:30.882Z,18.19
2023-05-10T19:04:58.146Z,18.23
2023-05-10T19:07:25.393Z,18.15
2023-05-10T19:09:52.671Z,18.11
2023-05-10T19:12:19.898Z,18.09
2023-05-10T19:14:48.174Z,18.05
2023-05-10T19:17:15.521Z,18.07
2023-05-10T19:19:44.615Z,18.02
2023-05-10T19:22:13.342Z,18.02
2023-05-10T19:24:40.796Z,18.03
2023-05-10T19:27:08.113Z,18.08
2023-05-10T19:29:35.358Z,18.10
2023-05-10T19:32:04.117Z,17.96
2023-05-10T19:34:31.485Z,17.97
2023-05-10T19:36:59.598Z,17.98
2023-05-10T19:39:27.908Z,17.96
2023-05-10T19:41:55.240Z,18.02
2023-05-10T19:44:25.346Z,18.01
2023-05-10T19:46:55.609Z,18.00
2023-05-10T19:49:22.932Z,17.96
2023-05-10T19:51:51.324Z,17.88
2023-05-10T19:54:18.529Z,17.85
2023-05-10T19:56:46.700Z,17.95
2023-05-10T19:59:13.985Z,17.82
2023-05-10T20:01:42.165Z,17.68
2023-05-10T20:04:09.735Z,17.53
2023-05-10T20:06:37.516Z,17.50
2023-05-10T20:09:05.396Z,17.51
2023-05-10T20:11:32.670Z,17.52
2023-05-10T20:14:00.971Z,17.54
2023-05-10T20:16:28.234Z,17.45
2023-05-10T20:18:55.561Z,17.39
2023-05-10T20:21:22.799Z,17.37
2023-05-10T20:23:50.180Z,17.34
2023-05-10T20:26:17.409Z,17.34
2023-05-10T20:28:47.626Z,17.40
2023-05-10T20:31:16.850Z,17.33
2023-05-10T20:33:45.706Z,17.34
2023-05-10T20:36:12.952Z,17.31
2023-05-10T20:38:40.412Z,17.37
2023-05-10T20:41:08.209Z,17.34
2023-05-10T20:43:35.804Z,17.31
2023-05-10T20:46:04.516Z,17.31
2023-05-10T20:48:32.852Z,17.31
2023-05-10T20:51:02.167Z,17.32
2023-05-10T20:53:29.459Z,17.29
2023-05-10T20:55:56.742Z,17.29
2023-05-10T20:58:27.131Z,17.34
2023-05-10T21:00:54.826Z,17.26
2023-05-10T21:03:21.235Z,17.32
2023-05-10T21:05:47.774Z,17.22
2023-05-10T21:08:14.312Z,17.19
2023-05-10T21:10:40.832Z,17.08
2023-05-10T21:13:07.238Z,17.09
2023-05-10T21:15:33.573Z,17.04
2023-05-10T21:18:02.488Z,16.99
2023-05-10T21:20:29.033Z,16.98
2023-05-10T21:22:55.513Z,17.05
2023-05-10T21:25:22.914Z,16.99
2023-05-10T21:27:49.570Z,17.03
2023-05-10T21:30:16.275Z,17.03
2023-05-10T21:32:42.973Z,16.99
2023-05-10T21:35:09.446Z,16.96
2023-05-10T21:37:36.156Z,16.99
2023-05-10T21:40:02.673Z,17.03
2023-05-10T21:42:29.262Z,17.02
2023-05-10T21:44:56.926Z,17.01
2023-05-10T21:47:23.327Z,16.96
2023-05-10T21:49:49.713Z,16.95
2023-05-10T21:52:16.102Z,16.96
2023-05-10T21:54:42.821Z,16.96
2023-05-10T21:57:09.498Z,16.96
2023-05-10T21:59:35.852Z,16.87
2023-05-10T22:02:03.294Z,16.78
2023-05-10T22:04:31.006Z,16.82
2023-05-10T22:06:57.538Z,16.85
2023-05-10T22:09:24.498Z,16.88
2023-05-10T22:11:51.284Z,16.89
2023-05-10T22:14:17.750Z,16.73
2023-05-10T22:16:45.044Z,16.77
2023-05-10T22:19:11.651Z,16.79
2023-05-10T22:21:38.178Z,16.77
2023-05-10T22:24:04.920Z,16.64
2023-05-10T22:26:31.267Z,16.58
2023-05-10T22:28:57.986Z,16.62
2023-05-10T22:31:24.592Z,16.64
2023-05-10T22:33:51.042Z,16.61
2023-05-10T22:36:17.797Z,16.63
2023-05-10T22:38:44.235Z,16.61
2023-05-10T22:41:10.725Z,16.60
2023-05-10T22:43:37.361Z,16.61
2023-05-10T22:46:04.835Z,16.74
2023-05-10T22:48:31.340Z,16.61
2023-05-10T22:50:57.781Z,16.55
2023-05-10T22:53:24.954Z,16.52
2023-05-10T22:55:51.449Z,16.53
2023-05-10T22:58:19.310Z,16.51
2023-05-10T23:00:45.737Z,16.45
2023-05-10T23:03:12.150Z,16.42
2023-05-10T23:05:38.582Z,16.45
2023-05-10T23:08:05.641Z,16.37
2023-05-10T23:10:32.107Z,16.32
2023-05-10T23:12:58.532Z,16.32
2023-05-10T23:15:25.106Z,16.36
2023-05-10T23:17:51.897Z,16.36
2023-05-10T23:20:18.763Z,16.36
2023-05-10T23:22:45.505Z,16.36
2023-05-10T23:25:12.208Z,16.32
2023-05-10T23:27:38.674Z,16.24
2023-05-10T23:30:05.298Z,16.27
2023-05-10T23:32:32.702Z,16.29
2023-05-10T23:34:59.377Z,16.32
2023-05-10T23:37:28.382Z,16.29
2023-05-10T23:39:57.910Z,16.30
2023-05-10T23:42:24.556Z,16.31
2023-05-10T23:44:52.081Z,16.26
2023-05-10T23:49:45.128Z,16.26
2023-05-10T23:52:11.730Z,16.23
2023-05-10T23:57:05.581Z,16.26
2023-05-10T23:59:32.645Z,16.23
